Time;durP1;ratioP1;P1;durP2;ratioP2;P2;SDS_P1;SDS_P2;PMS_P1;PMS_P2;Temp;Humidity;BMP_temperature;BMP_pressure;BME280_temperature;BME280_humidity;BME280_pressure;Samples;Min_cycle;Max_cycle;Signal;HPM_P1;HPM_P2
2022/10/11 00:00:48;;;;;;;10.98;2.47;;;9.30;84.80;;;;;;5074681;28;20476;-76
2022/10/11 00:03:14;;;;;;;9.50;2.42;;;9.30;84.80;;;;;;5074130;28;20051;-76
2022/10/11 00:05:42;;;;;;;11.40;1.92;;;9.20;84.90;;;;;;5074298;28;20101;-76
2022/10/11 00:08:09;;;;;;;17.65;2.90;;;9.20;84.90;;;;;;5058108;28;20040;-76
2022/10/11 00:10:34;;;;;;;14.05;2.25;;;9.10;84.90;;;;;;5074335;28;20033;-75
2022/10/11 00:13:00;;;;;;;16.67;2.67;;;9.10;84.90;;;;;;5074193;28;20523;-76
2022/10/11 00:15:26;;;;;;;8.98;2.58;;;9.10;84.90;;;;;;5057529;28;20102;-75
2022/10/11 00:17:52;;;;;;;9.27;2.55;;;9.00;85.00;;;;;;5074438;28;20123;-76
2022/10/11 00:20:17;;;;;;;9.95;2.47;;;9.00;85.10;;;;;;5073954;28;20105;-76
2022/10/11 00:22:43;;;;;;;14.82;3.55;;;9.00;85.10;;;;;;5073994;28;20044;-75
2022/10/11 00:25:10;;;;;;;15.45;4.35;;;8.90;85.20;;;;;;5073994;28;20054;-76
2022/10/11 00:27:36;;;;;;;22.88;9.38;;;8.80;85.10;;;;;;5057221;28;20094;-77
2022/10/11 00:30:07;;;;;;;20.55;9.68;;;8.80;85.20;;;;;;5073880;28;20068;-76
2022/10/11 00:32:34;;;;;;;17.80;6.13;;;8.70;85.20;;;;;;5073784;28;20052;-76
2022/10/11 00:35:05;;;;;;;23.70;10.02;;;8.50;85.30;;;;;;5073589;28;20086;-75
2022/10/11 00:37:31;;;;;;;22.48;9.05;;;8.50;85.40;;;;;;5074100;28;20125;-76
2022/10/11 00:39:57;;;;;;;14.13;4.43;;;8.40;85.50;;;;;;5073544;28;20131;-76
2022/10/11 00:42:23;;;;;;;15.02;3.55;;;8.30;85.60;;;;;;5073530;28;20124;-75
2022/10/11 00:44:49;;;;;;;14.35;2.97;;;8.30;85.50;;;;;;5057059;28;20044;-76
2022/10/11 00:47:21;;;;;;;20.45;4.88;;;8.20;85.60;;;;;;5056628;28;20154;-75
2022/10/11 00:49:53;;;;;;;15.60;5.07;;;8.10;85.70;;;;;;5073269;28;20035;-75
2022/10/11 00:52:30;;;;;;;12.63;5.25;;;8.00;85.80;;;;;;5056887;28;20052;-76
2022/10/11 00:55:05;;;;;;;14.05;5.30;;;8.00;85.80;;;;;;5073188;28;20127;-75
2022/10/11 00:57:35;;;;;;;16.80;4.88;;;7.90;86.00;;;;;;5073359;28;20384;-76
2022/10/11 01:00:04;;;;;;;10.68;4.50;;;7.90;86.00;;;;;;5056322;28;20045;-76
2022/10/11 01:02:30;;;;;;;12.32;4.78;;;7.80;86.10;;;;;;5056573;28;20044;-76
2022/10/11 01:04:56;;;;;;;16.05;3.85;;;7.80;86.20;;;;;;5073466;28;20429;-76
2022/10/11 01:07:22;;;;;;;16.02;4.68;;;7.80;86.20;;;;;;5073046;28;20049;-75
2022/10/11 01:09:48;;;;;;;15.63;4.75;;;7.80;86.20;;;;;;5072955;28;20033;-74
2022/10/11 01:12:18;;;;;;;17.08;4.38;;;7.70;86.40;;;;;;5073211;28;20045;-74
2022/10/11 01:14:58;;;;;;;9.15;3.35;;;7.70;86.40;;;;;;5056446;28;20060;-75
2022/10/11 01:17:41;;;;;;;14.30;4.97;;;7.60;86.50;;;;;;5073042;28;20044;-76
2022/10/11 01:20:26;;;;;;;16.50;6.68;;;7.60;86.50;;;;;;5073170;28;20040;-76
2022/10/11 01:23:25;;;;;;;14.75;5.60;;;7.60;86.80;;;;;;5072841;28;20036;-76
2022/10/11 01:26:12;;;;;;;14.07;6.22;;;7.50;87.10;;;;;;5072926;28;20044;-75
2022/10/11 01:28:40;;;;;;;17.48;7.57;;;7.40;87.30;;;;;;5056146;28;20044;-75
2022/10/11 01:31:24;;;;;;;16.65;7.35;;;7.30;87.30;;;;;;5072567;28;20036;-76
2022/10/11 01:33:58;;;;;;;14.15;5.05;;;7.30;87.60;;;;;;5072992;28;20048;-77
2022/10/11 01:36:37;;;;;;;14.95;5.97;;;7.30;87.60;;;;;;5072932;28;20044;-75
2022/10/11 01:39:10;;;;;;;15.65;5.40;;;7.30;87.50;;;;;;5072751;28;20036;-76
2022/10/11 01:41:40;;;;;;;11.27;4.43;;;7.30;87.30;;;;;;5072754;28;20381;-77
2022/10/11 01:44:06;;;;;;;14.73;4.60;;;7.30;87.20;;;;;;5056057;28;20049;-76
2022/10/11 01:46:33;;;;;;;17.35;4.72;;;7.30;87.30;;;;;;5072575;28;20377;-76
2022/10/11 01:49:00;;;;;;;12.43;3.20;;;7.30;87.40;;;;;;5072584;28;20075;-76
2022/10/11 01:51:34;;;;;;;12.60;2.90;;;7.30;87.30;;;;;;5072293;28;20037;-76
2022/10/11 01:54:18;;;;;;;10.27;2.22;;;7.30;87.40;;;;;;5072283;28;20111;-76
2022/10/11 01:57:02;;;;;;;12.98;3.42;;;7.30;87.60;;;;;;5072323;28;20033;-76
2022/10/11 01:59:39;;;;;;;14.73;5.93;;;7.30;88.00;;;;;;5072232;28;20542;-76
2022/10/11 02:02:17;;;;;;;14.82;5.40;;;7.40;87.90;;;;;;5072563;28;20396;-76
2022/10/11 02:04:49;;;;;;;16.63;4.95;;;7.30;88.30;;;;;;5072374;28;20044;-76
2022/10/11 02:07:46;;;;;;;11.15;3.53;;;7.30;88.40;;;;;;5072392;28;20036;-76
2022/10/11 02:10:22;;;;;;;12.88;2.95;;;7.30;88.50;;;;;;5026710;28;20053;-76
2022/10/11 02:12:56;;;;;;;14.85;3.28;;;7.30;88.40;;;;;;5072346;28;20080;-76
2022/10/11 02:15:29;;;;;;;17.08;3.92;;;7.30;88.40;;;;;;5072140;28;20036;-75
2022/10/11 02:17:58;;;;;;;15.05;3.03;;;7.30;88.40;;;;;;5072011;28;20036;-73
2022/10/11 02:20:27;;;;;;;19.23;3.55;;;7.20;88.20;;;;;;5072232;28;20135;-74
2022/10/11 02:23:00;;;;;;;12.60;3.30;;;7.30;88.10;;;;;;5055265;28;20086;-75
2022/10/11 02:25:31;;;;;;;16.50;4.50;;;7.20;88.20;;;;;;5072116;28;20488;-74
2022/10/11 02:28:00;;;;;;;18.85;4.28;;;7.30;88.30;;;;;;5071966;28;20037;-76
2022/10/11 02:30:28;;;;;;;16.50;3.70;;;7.30;88.40;;;;;;5071838;28;20540;-76
2022/10/11 02:32:56;;;;;;;15.70;3.67;;;7.30;88.40;;;;;;5072305;28;20116;-74
2022/10/11 02:35:25;;;;;;;17.05;4.43;;;7.40;88.20;;;;;;5072005;28;20032;-74
2022/10/11 02:38:24;;;;;;;17.63;4.57;;;7.40;88.10;;;;;;5071766;28;20079;-74
2022/10/11 02:40:56;;;;;;;14.18;3.55;;;7.40;88.10;;;;;;5039517;28;20404;-75
2022/10/11 02:43:45;;;;;;;15.23;3.80;;;7.50;88.30;;;;;;5072211;28;20048;-74
2022/10/11 02:46:12;;;;;;;10.35;3.10;;;7.50;88.10;;;;;;5071718;28;20060;-74
2022/10/11 02:48:38;;;;;;;15.02;3.10;;;7.40;88.10;;;;;;5071848;28;20037;-74
2022/10/11 02:51:04;;;;;;;14.32;3.13;;;7.40;88.00;;;;;;5071869;28;20116;-74
2022/10/11 02:53:31;;;;;;;12.77;2.90;;;7.40;87.90;;;;;;5054932;28;20111;-74
2022/10/11 02:55:57;;;;;;;14.65;3.88;;;7.40;87.80;;;;;;5054981;28;20040;-74
2022/10/11 02:58:23;;;;;;;18.92;3.95;;;7.40;87.90;;;;;;5071973;28;20048;-73
2022/10/11 03:00:49;;;;;;;19.13;5.15;;;7.40;87.90;;;;;;5071553;28;20500;-73
2022/10/11 03:03:15;;;;;;;18.52;5.18;;;7.50;87.90;;;;;;5071764;28;20041;-73
2022/10/11 03:05:40;;;;;;;10.88;4.18;;;7.50;87.90;;;;;;5072065;28;20046;-74
2022/10/11 03:08:08;;;;;;;15.05;5.50;;;7.50;87.80;;;;;;5054980;28;20040;-74
2022/10/11 03:10:35;;;;;;;18.45;5.43;;;7.50;87.80;;;;;;5055059;28;20040;-75
2022/10/11 03:13:01;;;;;;;15.98;3.83;;;7.50;87.70;;;;;;5054930;28;20044;-73
2022/10/11 03:15:27;;;;;;;18.73;5.75;;;7.60;87.80;;;;;;5071718;28;20040;-74
2022/10/11 03:17:53;;;;;;;18.02;4.82;;;7.50;87.80;;;;;;5071603;28;20201;-75
2022/10/11 03:20:19;;;;;;;15.73;5.32;;;7.60;87.90;;;;;;5071666;28;20392;-74
2022/10/11 03:22:45;;;;;;;14.82;4.75;;;7.60;87.80;;;;;;5072958;28;20536;-75
2022/10/11 03:25:10;;;;;;;17.65;4.53;;;7.60;87.70;;;;;;5075118;28;20037;-74
2022/10/11 03:27:36;;;;;;;12.68;4.28;;;7.60;87.50;;;;;;5075024;28;20045;-74
2022/10/11 03:30:03;;;;;;;18.75;4.32;;;7.60;87.60;;;;;;5074846;28;20040;-75
2022/10/11 03:32:29;;;;;;;14.43;4.72;;;7.70;87.80;;;;;;5074881;28;20519;-74
2022/10/11 03:34:55;;;;;;;13.35;3.88;;;7.60;87.90;;;;;;5074809;28;20519;-74
2022/10/11 03:37:21;;;;;;;17.67;3.53;;;7.60;88.10;;;;;;5058341;28;20044;-74
2022/10/11 03:39:47;;;;;;;11.77;2.55;;;7.70;88.00;;;;;;5041608;28;20040;-75
2022/10/11 03:42:13;;;;;;;13.13;3.22;;;7.60;88.40;;;;;;5074889;28;20497;-75
2022/10/11 03:44:40;;;;;;;10.77;2.92;;;7.70;88.00;;;;;;5074657;28;20060;-74
2022/10/11 03:47:06;;;;;;;10.63;2.47;;;7.70;88.60;;;;;;5074184;28;20052;-74
2022/10/11 03:49:32;;;;;;;14.85;2.95;;;7.70;88.10;;;;;;5074720;28;20063;-74
2022/10/11 03:51:58;;;;;;;14.48;2.65;;;7.80;88.30;;;;;;5074443;28;20119;-74
2022/10/11 03:54:23;;;;;;;14.82;2.85;;;7.80;87.90;;;;;;5074365;28;20037;-73
2022/10/11 03:56:49;;;;;;;12.77;2.28;;;7.90;88.10;;;;;;5057690;28;20123;-75
2022/10/11 03:59:15;;;;;;;12.98;2.88;;;8.00;87.90;;;;;;5074127;28;20124;-74
2022/10/11 04:01:40;;;;;;;13.13;2.92;;;8.10;87.80;;;;;;5074550;28;20048;-74
2022/10/11 04:04:06;;;;;;;13.40;2.75;;;8.10;88.00;;;;;;5057750;28;20033;-74
2022/10/11 04:06:32;;;;;;;11.48;2.78;;;8.10;87.80;;;;;;5074201;28;20111;-74
2022/10/11 04:08:58;;;;;;;11.00;3.03;;;8.20;87.80;;;;;;5074518;28;20379;-74
2022/10/11 04:11:24;;;;;;;19.05;3.92;;;8.20;87.70;;;;;;5074060;28;20044;-73
2022/10/11 04:13:50;;;;;;;14.35;2.95;;;8.20;87.70;;;;;;5057488;28;20357;-74
2022/10/11 04:16:15;;;;;;;16.70;3.15;;;8.30;88.10;;;;;;5073847;28;20115;-74
2022/10/11 04:18:41;;;;;;;22.83;4.50;;;8.30;88.20;;;;;;5074117;28;20044;-75
2022/10/11 04:21:07;;;;;;;13.85;3.38;;;8.30;88.20;;;;;;5057629;28;20052;-74
2022/10/11 04:23:33;;;;;;;11.85;3.20;;;8.20;88.20;;;;;;5073896;28;20122;-73
2022/10/11 04:25:58;;;;;;;12.98;3.88;;;8.20;88.20;;;;;;5074180;28;20051;-75
2022/10/11 04:28:24;;;;;;;14.65;3.00;;;8.20;88.30;;;;;;5073653;28;20037;-75
2022/10/11 04:30:51;;;;;;;13.57;3.00;;;8.30;88.10;;;;;;5073924;28;20036;-75
2022/10/11 04:33:16;;;;;;;13.18;2.30;;;8.30;88.20;;;;;;5073690;28;20416;-74
2022/10/11 04:35:42;;;;;;;12.38;2.70;;;8.30;88.00;;;;;;5073683;28;20067;-74
2022/10/11 04:38:08;;;;;;;13.82;2.92;;;8.30;87.90;;;;;;5073711;28;20123;-75
2022/10/11 04:40:34;;;;;;;13.35;2.88;;;8.30;87.80;;;;;;5048904;28;20040;-75
2022/10/11 04:43:03;;;;;;;11.18;2.88;;;8.30;87.90;;;;;;5037026;28;20045;-75
2022/10/11 04:45:29;;;;;;;8.75;2.90;;;8.30;88.00;;;;;;5053406;28;20045;-74
2022/10/11 04:47:54;;;;;;;15.75;2.80;;;8.30;87.90;;;;;;5036894;28;20123;-75
2022/10/11 04:50:20;;;;;;;15.38;4.03;;;8.20;87.80;;;;;;5053884;28;20041;-73
2022/10/11 04:52:46;;;;;;;14.45;4.68;;;8.20;87.90;;;;;;5053573;28;20693;-74
2022/10/11 04:55:13;;;;;;;12.52;4.30;;;8.10;88.10;;;;;;5036875;28;20157;-74
2022/10/11 04:57:38;;;;;;;11.43;3.38;;;8.10;88.20;;;;;;5053203;28;20045;-74
2022/10/11 05:00:05;;;;;;;17.33;2.53;;;8.10;88.10;;;;;;5053248;28;20052;-73
2022/10/11 05:02:30;;;;;;;13.48;2.92;;;8.10;88.00;;;;;;5036887;28;20394;-74
2022/10/11 05:04:56;;;;;;;12.43;2.75;;;8.10;88.00;;;;;;5020584;28;20036;-73
2022/10/11 05:07:22;;;;;;;15.57;3.17;;;8.10;88.00;;;;;;5036482;28;20452;-73
2022/10/11 05:09:48;;;;;;;14.35;3.03;;;8.10;88.30;;;;;;5036685;28;20037;-74
2022/10/11 05:12:13;;;;;;;12.63;2.25;;;8.10;88.10;;;;;;5053081;28;20440;-73
2022/10/11 05:14:39;;;;;;;14.48;3.78;;;8.10;88.10;;;;;;5036496;28;20051;-73
2022/10/11 05:17:05;;;;;;;12.35;2.65;;;8.20;88.20;;;;;;5052871;28;20628;-73
2022/10/11 05:19:30;;;;;;;15.57;2.90;;;8.20;88.30;;;;;;5052963;28;20033;-73
2022/10/11 05:21:59;;;;;;;11.13;2.38;;;8.20;88.20;;;;;;5053108;28;20076;-74
2022/10/11 05:24:24;;;;;;;12.95;2.67;;;8.20;88.30;;;;;;5037062;28;20044;-74
2022/10/11 05:26:50;;;;;;;13.60;3.10;;;8.20;88.20;;;;;;5036137;28;20398;-75
2022/10/11 05:29:16;;;;;;;13.98;2.78;;;8.20;88.30;;;;;;5003485;28;20437;-73
2022/10/11 05:31:42;;;;;;;14.80;3.85;;;8.10;88.50;;;;;;5070921;28;20044;-74
2022/10/11 05:34:07;;;;;;;18.30;4.03;;;8.10;88.70;;;;;;5072836;28;20048;-73
2022/10/11 05:36:33;;;;;;;12.30;4.57;;;8.10;88.90;;;;;;5055771;28;20507;-73
2022/10/11 05:38:59;;;;;;;9.73;2.55;;;8.10;88.80;;;;;;5072487;28;20412;-75
2022/10/11 05:41:25;;;;;;;15.63;3.67;;;8.00;88.80;;;;;;5055960;28;20076;-75
2022/10/11 05:43:50;;;;;;;17.65;3.20;;;8.10;88.50;;;;;;5072498;28;20481;-74
2022/10/11 05:46:16;;;;;;;9.13;2.22;;;8.10;88.50;;;;;;5054510;28;20048;-73
2022/10/11 05:48:42;;;;;;;15.18;3.35;;;8.10;88.70;;;;;;5071886;28;20056;-74
2022/10/11 05:51:09;;;;;;;15.18;5.15;;;8.10;88.60;;;;;;5055194;28;20488;-73
2022/10/11 05:53:36;;;;;;;14.10;4.35;;;8.20;88.60;;;;;;5071961;28;20048;-73
2022/10/11 05:56:03;;;;;;;10.60;4.05;;;8.20;89.30;;;;;;5071876;28;20473;-74
2022/10/11 05:58:28;;;;;;;15.85;4.45;;;8.10;89.20;;;;;;5072310;28;20056;-74
2022/10/11 06:00:55;;;;;;;14.80;4.75;;;8.20;89.20;;;;;;5055659;28;20044;-73
2022/10/11 06:03:21;;;;;;;14.95;4.53;;;8.10;88.90;;;;;;5072314;28;20057;-73
2022/10/11 06:05:48;;;;;;;14.05;4.32;;;8.10;88.80;;;;;;5072489;28;20044;-74
2022/10/11 06:08:14;;;;;;;15.35;3.83;;;8.10;89.30;;;;;;5071999;28;20488;-74
2022/10/11 06:10:40;;;;;;;10.75;3.60;;;8.10;89.70;;;;;;5048088;28;20086;-73
2022/10/11 06:13:06;;;;;;;15.75;2.70;;;8.10;89.70;;;;;;5048013;28;20102;-72
2022/10/11 06:15:33;;;;;;;14.18;2.60;;;8.10;89.80;;;;;;5034454;28;20497;-73
2022/10/11 06:17:59;;;;;;;15.25;2.85;;;8.10;89.80;;;;;;5054904;28;20061;-74
2022/10/11 06:20:25;;;;;;;16.10;3.05;;;8.10;90.10;;;;;;5051137;28;20049;-73
2022/10/11 06:22:51;;;;;;;13.75;2.70;;;8.10;90.10;;;;;;5052546;28;20124;-73
2022/10/11 06:25:17;;;;;;;10.77;2.90;;;8.10;90.10;;;;;;5054008;28;20135;-73
2022/10/11 06:27:42;;;;;;;15.23;3.10;;;8.10;89.70;;;;;;5055533;28;20041;-74
2022/10/11 06:30:08;;;;;;;14.35;3.17;;;8.20;90.00;;;;;;5052884;28;20405;-73
2022/10/11 06:32:34;;;;;;;17.75;3.88;;;8.30;89.70;;;;;;5054784;28;20098;-73
2022/10/11 06:35:02;;;;;;;12.13;3.03;;;8.40;90.10;;;;;;5051290;28;20593;-73
2022/10/11 06:37:28;;;;;;;11.75;2.70;;;8.40;89.80;;;;;;5052735;28;20059;-73
2022/10/11 06:39:54;;;;;;;11.55;3.00;;;8.50;90.10;;;;;;5052086;28;20048;-73
2022/10/11 06:42:20;;;;;;;18.70;3.47;;;8.50;90.20;;;;;;5055497;28;20041;-73
2022/10/11 06:44:45;;;;;;;15.95;4.30;;;8.60;90.10;;;;;;5035478;28;20044;-73
2022/10/11 06:47:11;;;;;;;14.27;4.93;;;8.60;90.20;;;;;;5053284;28;20504;-73
2022/10/11 06:49:37;;;;;;;15.55;4.68;;;8.60;89.90;;;;;;5017795;28;20509;-73
2022/10/11 06:52:02;;;;;;;21.63;4.40;;;8.70;90.20;;;;;;5052277;28;20053;-73
2022/10/11 06:54:28;;;;;;;16.00;4.60;;;8.70;90.30;;;;;;5048649;28;20911;-73
2022/10/11 06:56:54;;;;;;;11.90;3.42;;;8.70;90.30;;;;;;5037833;28;20037;-73
2022/10/11 06:59:20;;;;;;;15.35;4.22;;;8.80;90.20;;;;;;5060060;28;20400;-73
2022/10/11 07:01:45;;;;;;;15.90;3.67;;;8.80;89.90;;;;;;5056876;28;20053;-73
2022/10/11 07:04:11;;;;;;;12.27;2.60;;;8.90;90.50;;;;;;5037696;28;20412;-73
2022/10/11 07:06:39;;;;;;;13.50;2.58;;;8.90;90.60;;;;;;5059872;28;20041;-73
2022/10/11 07:09:06;;;;;;;14.20;2.70;;;8.90;91.00;;;;;;5058202;28;20090;-72
2022/10/11 07:11:32;;;;;;;12.85;3.10;;;9.00;90.90;;;;;;5052689;28;20053;-73
2022/10/11 07:14:01;;;;;;;10.00;3.08;;;9.00;91.00;;;;;;5055510;28;20044;-73
2022/10/11 07:16:29;;;;;;;7.72;2.40;;;9.10;90.80;;;;;;5060616;28;20087;-73
2022/10/11 07:18:57;;;;;;;13.88;2.88;;;9.10;90.70;;;;;;5053875;28;20040;-73
2022/10/11 07:21:23;;;;;;;10.90;2.80;;;9.20;90.80;;;;;;5059399;28;20063;-73
2022/10/11 07:23:49;;;;;;;9.30;3.40;;;9.30;90.80;;;;;;5054052;28;20040;-73
2022/10/11 07:26:15;;;;;;;14.25;2.92;;;9.30;90.30;;;;;;5059267;28;20178;-73
2022/10/11 07:28:41;;;;;;;14.27;2.85;;;9.40;90.00;;;;;;5059410;28;20626;-73
2022/10/11 07:31:11;;;;;;;12.90;2.42;;;9.50;90.40;;;;;;5058483;28;20049;-73
2022/10/11 07:33:37;;;;;;;13.55;2.55;;;9.60;90.10;;;;;;5059139;28;20047;-73
2022/10/11 07:36:04;;;;;;;17.00;5.05;;;9.60;90.50;;;;;;5054815;28;20327;-73
2022/10/11 07:38:31;;;;;;;9.68;3.30;;;9.70;90.40;;;;;;5059992;28;20404;-73
2022/10/11 07:40:56;;;;;;;12.15;2.78;;;9.80;90.60;;;;;;5057497;28;20056;-74
2022/10/11 07:43:22;;;;;;;10.70;2.90;;;9.90;90.00;;;;;;5037134;28;20048;-72
2022/10/11 07:45:53;;;;;;;14.98;4.80;;;10.10;90.90;;;;;;5057869;28;20044;-73
2022/10/11 07:48:19;;;;;;;14.20;3.58;;;10.20;90.50;;;;;;5056994;28;20044;-73
2022/10/11 07:50:45;;;;;;;9.80;3.17;;;10.30;90.20;;;;;;5058386;28;20137;-73
2022/10/11 07:53:10;;;;;;;14.27;3.78;;;10.40;90.50;;;;;;5057208;28;20099;-73
2022/10/11 07:55:39;;;;;;;18.98;3.53;;;10.50;90.20;;;;;;5059322;28;20045;-72
2022/10/11 07:58:08;;;;;;;10.55;2.47;;;10.60;90.00;;;;;;5058060;28;20060;-72
2022/10/11 08:00:34;;;;;;;16.20;3.30;;;10.70;89.90;;;;;;5057007;28;20048;-73
2022/10/11 08:03:02;;;;;;;15.70;3.20;;;10.80;90.00;;;;;;5057839;28;20048;-73
2022/10/11 08:05:29;;;;;;;13.93;3.83;;;10.90;90.50;;;;;;5055940;28;20537;-73
2022/10/11 08:07:54;;;;;;;15.65;3.17;;;11.00;90.40;;;;;;5053298;28;20041;-73
2022/10/11 08:10:20;;;;;;;18.23;3.13;;;11.00;90.40;;;;;;5054331;28;20097;-73
2022/10/11 08:12:47;;;;;;;13.63;3.50;;;11.10;90.20;;;;;;5056379;28;20040;-73
2022/10/11 08:15:12;;;;;;;18.38;4.28;;;11.10;90.10;;;;;;5051623;28;20144;-73
2022/10/11 08:17:38;;;;;;;11.95;3.00;;;11.20;90.10;;;;;;5042267;28;20812;-73
2022/10/11 08:20:04;;;;;;;9.65;2.53;;;11.30;90.10;;;;;;5055433;28;20052;-73
2022/10/11 08:22:30;;;;;;;16.60;3.10;;;11.40;90.00;;;;;;5038321;28;20056;-73
2022/10/11 08:24:56;;;;;;;8.43;2.55;;;11.50;90.10;;;;;;5055743;28;20106;-73
2022/10/11 08:27:22;;;;;;;13.90;3.60;;;11.60;89.90;;;;;;5071326;28;20040;-75
2022/10/11 08:29:47;;;;;;;13.75;3.13;;;11.70;89.70;;;;;;5073489;28;20076;-74
2022/10/11 08:32:13;;;;;;;11.77;2.63;;;11.90;89.30;;;;;;5073407;28;20079;-74
2022/10/11 08:34:39;;;;;;;12.65;3.28;;;12.00;89.20;;;;;;5073721;28;20033;-73
2022/10/11 08:37:05;;;;;;;15.00;3.33;;;12.10;89.00;;;;;;5073245;28;20501;-74
2022/10/11 08:39:31;;;;;;;12.40;2.47;;;12.20;88.90;;;;;;5073413;28;20044;-75
2022/10/11 08:42:09;;;;;;;14.45;3.00;;;12.30;88.70;;;;;;5073367;28;20055;-74
2022/10/11 08:44:56;;;;;;;14.20;3.55;;;12.30;88.40;;;;;;5073112;28;20517;-73
2022/10/11 08:47:29;;;;;;;11.45;2.85;;;12.50;88.10;;;;;;5072383;28;20095;-73
2022/10/11 08:49:56;;;;;;;15.35;2.80;;;12.50;87.80;;;;;;5072791;28;20500;-72
2022/10/11 08:52:29;;;;;;;15.10;3.22;;;12.60;87.30;;;;;;5072915;28;20032;-75
2022/10/11 08:55:06;;;;;;;13.98;4.03;;;12.70;87.10;;;;;;5072816;28;20045;-73
2022/10/11 08:57:34;;;;;;;14.00;3.03;;;12.80;86.80;;;;;;5072783;28;20045;-74
2022/10/11 09:00:07;;;;;;;6.18;2.50;;;13.00;86.40;;;;;;5072592;28;20052;-74
2022/10/11 09:02:33;;;;;;;10.95;2.15;;;13.10;86.00;;;;;;5072691;28;20052;-74
2022/10/11 09:05:00;;;;;;;13.23;2.67;;;13.20;85.70;;;;;;5072667;28;20181;-74
2022/10/11 09:08:10;;;;;;;12.80;2.42;;;13.30;85.70;;;;;;5072700;28;20037;-74
2022/10/11 09:11:11;;;;;;;11.05;1.88;;;13.50;85.10;;;;;;5015000;28;20038;-73
2022/10/11 09:13:53;;;;;;;12.48;2.20;;;13.50;83.90;;;;;;5034665;28;20077;-73
2022/10/11 09:16:48;;;;;;;12.07;2.05;;;13.70;83.60;;;;;;5068634;28;20048;-73
2022/10/11 09:19:32;;;;;;;9.70;2.60;;;13.80;82.70;;;;;;5072309;28;20037;-74
2022/10/11 09:22:29;;;;;;;8.38;1.77;;;13.90;82.00;;;;;;5072560;28;20127;-73
2022/10/11 09:25:20;;;;;;;8.40;1.92;;;14.00;81.10;;;;;;5047907;28;20447;-73
2022/10/11 09:28:01;;;;;;;7.60;1.95;;;14.10;80.50;;;;;;5072145;28;20086;-73
2022/10/11 09:30:26;;;;;;;9.05;2.85;;;14.20;80.30;;;;;;5072424;28;20076;-73
2022/10/11 09:33:16;;;;;;;7.80;2.35;;;14.40;79.90;;;;;;5072141;28;20582;-73
2022/10/11 09:35:46;;;;;;;8.05;2.13;;;14.40;79.10;;;;;;5072064;28;20041;-73
2022/10/11 09:38:25;;;;;;;11.07;3.30;;;14.50;77.20;;;;;;5072229;28;20106;-73
2022/10/11 09:40:59;;;;;;;10.25;3.13;;;14.60;75.60;;;;;;5072284;28;20051;-73
2022/10/11 09:43:25;;;;;;;9.35;2.47;;;14.70;75.40;;;;;;5055417;28;20051;-73
2022/10/11 09:45:51;;;;;;;10.27;1.77;;;14.80;75.50;;;;;;5055427;28;20040;-73
2022/10/11 09:48:23;;;;;;;13.60;2.15;;;14.90;75.40;;;;;;5072093;28;20190;-73
2022/10/11 09:51:01;;;;;;;9.33;2.20;;;15.00;74.40;;;;;;5071904;28;20052;-74
2022/10/11 09:53:52;;;;;;;7.80;1.90;;;15.00;72.90;;;;;;5071967;28;20075;-73
2022/10/11 09:56:18;;;;;;;8.48;2.63;;;15.10;71.50;;;;;;5072060;28;20094;-73
2022/10/11 09:58:43;;;;;;;9.45;2.38;;;15.00;71.20;;;;;;5055490;28;20048;-73
2022/10/11 10:01:12;;;;;;;10.07;2.50;;;15.00;71.70;;;;;;5055152;28;20459;-74
2022/10/11 10:03:43;;;;;;;15.35;2.88;;;15.10;70.90;;;;;;5072005;28;20036;-73
2022/10/11 10:06:25;;;;;;;9.82;2.17;;;15.20;71.00;;;;;;5071722;28;20048;-74
2022/10/11 10:08:50;;;;;;;6.20;1.70;;;15.30;71.20;;;;;;5071758;28;20055;-74
2022/10/11 10:11:17;;;;;;;9.13;1.98;;;15.40;70.90;;;;;;5055032;28;20032;-74
2022/10/11 10:13:50;;;;;;;13.57;3.15;;;15.50;71.00;;;;;;5071661;28;20047;-74
2022/10/11 10:16:25;;;;;;;6.55;1.77;;;15.60;70.40;;;;;;5071965;28;20072;-73
2022/10/11 10:19:01;;;;;;;10.68;2.00;;;15.70;69.30;;;;;;5071644;28;20040;-74
2022/10/11 10:21:48;;;;;;;6.93;1.73;;;15.90;69.20;;;;;;5071624;28;20044;-73
2022/10/11 10:24:36;;;;;;;4.15;1.40;;;16.00;68.70;;;;;;5071594;28;20051;-74
2022/10/11 10:27:22;;;;;;;9.00;1.85;;;16.10;68.30;;;;;;5071664;28;20048;-76
2022/10/11 10:30:06;;;;;;;10.13;2.45;;;16.20;68.00;;;;;;5071573;28;20051;-74
2022/10/11 10:32:46;;;;;;;8.90;2.13;;;16.20;65.70;;;;;;5074375;28;20180;-74
2022/10/11 10:35:16;;;;;;;9.07;2.47;;;16.30;66.40;;;;;;5075662;28;20033;-74
2022/10/11 10:37:50;;;;;;;9.57;2.00;;;16.40;65.10;;;;;;5058938;28;20047;-74
2022/10/11 10:40:29;;;;;;;9.23;1.70;;;16.40;64.90;;;;;;5075392;28;20103;-73
2022/10/11 10:42:54;;;;;;;9.23;1.95;;;16.60;64.80;;;;;;5075778;28;20397;-74
2022/10/11 10:45:26;;;;;;;9.50;1.88;;;16.60;65.10;;;;;;5075287;28;20048;-75
2022/10/11 10:48:15;;;;;;;10.85;2.28;;;16.70;63.60;;;;;;5075074;28;20063;-75
2022/10/11 10:50:46;;;;;;;13.85;2.58;;;16.70;64.00;;;;;;5075283;28;20072;-74
2022/10/11 10:53:36;;;;;;;11.50;1.98;;;16.80;63.90;;;;;;5058503;28;20052;-74
2022/10/11 10:56:11;;;;;;;7.80;1.92;;;16.70;64.00;;;;;;5075424;28;20045;-73
2022/10/11 10:59:18;;;;;;;10.10;1.55;;;16.50;63.90;;;;;;5075164;28;20048;-73
2022/10/11 11:02:02;;;;;;;7.95;2.15;;;16.30;65.10;;;;;;5075100;28;20052;-73
2022/10/11 11:04:32;;;;;;;9.18;1.95;;;16.00;66.30;;;;;;5075040;28;20107;-73
2022/10/11 11:07:25;;;;;;;6.43;1.88;;;16.00;66.60;;;;;;5074863;28;20040;-73
2022/10/11 11:10:27;;;;;;;7.20;1.58;;;16.10;66.20;;;;;;5075204;28;20469;-74
2022/10/11 11:13:14;;;;;;;5.65;1.73;;;16.30;64.70;;;;;;5061939;28;20048;-73
2022/10/11 11:15:57;;;;;;;6.55;1.60;;;16.40;64.10;;;;;;5075077;28;20045;-73
2022/10/11 11:18:24;;;;;;;8.43;1.50;;;16.70;63.70;;;;;;5075053;28;20389;-73
2022/10/11 11:21:12;;;;;;;8.27;2.60;;;16.90;64.30;;;;;;5075028;28;20445;-75
2022/10/11 11:23:57;;;;;;;5.75;1.88;;;17.20;64.30;;;;;;5074658;28;20087;-74
2022/10/11 11:26:33;;;;;;;7.47;1.55;;;17.40;64.50;;;;;;5074630;28;20047;-74
2022/10/11 11:29:07;;;;;;;9.88;2.17;;;17.50;64.30;;;;;;5074642;28;20044;-73
2022/10/11 11:32:23;;;;;;;13.50;1.90;;;17.50;64.50;;;;;;5074754;28;20172;-75
2022/10/11 11:34:59;;;;;;;10.10;1.92;;;17.40;64.50;;;;;;5016944;28;20042;-74
2022/10/11 11:37:40;;;;;;;10.05;1.75;;;17.00;64.60;;;;;;5066417;28;20532;-74
2022/10/11 11:40:08;;;;;;;4.63;1.27;;;16.80;64.70;;;;;;5074505;28;20037;-74
2022/10/11 11:42:43;;;;;;;11.20;2.95;;;16.60;65.10;;;;;;5073494;28;20076;-74
2022/10/11 11:45:22;;;;;;;13.48;1.92;;;16.40;65.70;;;;;;5074402;28;20052;-74
2022/10/11 11:47:55;;;;;;;6.45;1.50;;;16.10;66.40;;;;;;5073613;28;20052;-74
2022/10/11 11:50:25;;;;;;;5.47;1.70;;;16.00;67.30;;;;;;5074053;28;20045;-74
2022/10/11 11:53:06;;;;;;;9.75;2.10;;;15.90;67.80;;;;;;5074138;28;20076;-74
2022/10/11 11:55:44;;;;;;;7.75;1.58;;;16.00;67.20;;;;;;5074251;28;20040;-74
2022/10/11 11:58:33;;;;;;;7.65;1.60;;;16.00;67.00;;;;;;5057355;28;20040;-74
2022/10/11 12:01:28;;;;;;;11.75;1.77;;;15.90;66.90;;;;;;5074116;28;20114;-73
2022/10/11 12:04:01;;;;;;;6.10;1.52;;;16.00;67.00;;;;;;5057490;28;20477;-74
2022/10/11 12:06:35;;;;;;;15.15;2.55;;;16.00;66.60;;;;;;5057181;28;20044;-74
2022/10/11 12:09:15;;;;;;;11.70;2.33;;;16.30;66.30;;;;;;5073728;28;20040;-74
2022/10/11 12:11:49;;;;;;;6.55;1.65;;;16.60;64.90;;;;;;5073653;28;20503;-74
2022/10/11 12:14:23;;;;;;;6.55;2.28;;;16.90;64.60;;;;;;5073781;28;20493;-74
2022/10/11 12:17:18;;;;;;;7.28;1.67;;;17.10;64.10;;;;;;5074047;28;20084;-74
2022/10/11 12:20:02;;;;;;;;;;;17.30;62.80;;;;;;5074255;28;20046;-74
2022/10/11 12:22:28;;;;;;;6.85;1.55;;;17.10;63.30;;;;;;5057070;28;19916;-74
2022/10/11 12:25:22;;;;;;;8.40;2.20;;;16.90;63.30;;;;;;5073437;28;20400;-74
2022/10/11 12:28:01;;;;;;;11.20;1.98;;;17.00;63.70;;;;;;5073377;28;20097;-75
2022/10/11 12:30:49;;;;;;;8.75;1.80;;;17.20;63.00;;;;;;5073274;28;20477;-74
2022/10/11 12:33:31;;;;;;;5.20;1.25;;;17.60;63.30;;;;;;5073376;28;20052;-74
2022/10/11 12:36:00;;;;;;;5.32;1.95;;;17.70;60.50;;;;;;5073345;28;20051;-75
2022/10/11 12:38:36;;;;;;;6.88;1.58;;;18.00;58.70;;;;;;5056538;28;20037;-74
2022/10/11 12:41:07;;;;;;;8.35;2.97;;;18.00;57.70;;;;;;5073670;28;20484;-74
2022/10/11 12:44:07;;;;;;;8.38;1.65;;;18.00;57.50;;;;;;5073458;28;20072;-74
2022/10/11 12:46:39;;;;;;;6.95;1.40;;;17.80;58.40;;;;;;5047741;28;20049;-74
2022/10/11 12:49:17;;;;;;;8.23;1.63;;;17.90;58.70;;;;;;5056195;28;20500;-74
2022/10/11 12:51:58;;;;;;;6.65;1.45;;;17.70;57.90;;;;;;5072828;28;20101;-74
2022/10/11 12:55:07;;;;;;;6.10;1.45;;;17.60;59.20;;;;;;5072805;28;20040;-74
2022/10/11 12:58:07;;;;;;;6.35;2.78;;;17.40;59.20;;;;;;5062010;28;20044;-74
2022/10/11 13:00:39;;;;;;;5.38;1.60;;;17.50;57.90;;;;;;5072795;28;20158;-74
2022/10/11 13:03:27;;;;;;;6.88;1.40;;;17.70;58.10;;;;;;5073055;28;20045;-74
2022/10/11 13:05:56;;;;;;;5.30;1.33;;;17.80;58.20;;;;;;5072924;28;20404;-74
2022/10/11 13:08:26;;;;;;;8.13;2.25;;;17.60;59.20;;;;;;5072514;28;20052;-74